sensor_id;sensor_type;location;lat;lon;timestamp;pressure;altitude;pressure_sealevel;temperature;humidity
13486;BME280;6815;59.336;17.998;2024-03-29T00:02:01;91242.25;;;-145.37;100.00
13486;BME280;6815;59.336;17.998;2024-03-29T00:04:26;91201.88;;;-145.37;100.00
13486;BME280;6815;59.336;17.998;2024-03-29T00:06:52;91167.56;;;-145.37;100.00
13486;BME280;6815;59.336;17.998;2024-03-29T00:09:17;91197.84;;;-145.37;100.00
13486;BME280;6815;59.336;17.998;2024-03-29T00:11:43;91216.00;;;-145.37;100.00
13486;BME280;6815;59.336;17.998;2024-03-29T00:14:09;91203.91;;;-145.37;100.00
13486;BME280;6815;59.336;17.998;2024-03-29T00:16:34;91175.63;;;-145.37;100.00
13486;BME280;6815;59.336;17.998;2024-03-29T00:18:59;91209.97;;;-145.37;100.00
13486;BME280;6815;59.336;17.998;2024-03-29T00:21:25;91216.00;;;-145.37;100.00
13486;BME280;6815;59.336;17.998;2024-03-29T00:23:50;91242.25;;;-145.37;100.00
13486;BME280;6815;59.336;17.998;2024-03-29T00:26:16;91573.41;;;-145.37;100.00
13486;BME280;6815;59.336;17.998;2024-03-29T00:28:42;91042.38;;;-145.37;100.00
13486;BME280;6815;59.336;17.998;2024-03-29T00:31:07;91104.97;;;-145.37;100.00
13486;BME280;6815;59.336;17.998;2024-03-29T00:33:33;91179.66;;;-145.37;100.00
13486;BME280;6815;59.336;17.998;2024-03-29T00:35:58;91181.69;;;-145.37;100.00
13486;BME280;6815;59.336;17.998;2024-03-29T00:38:24;91141.31;;;-145.37;100.00
13486;BME280;6815;59.336;17.998;2024-03-29T00:40:50;91072.66;;;-145.37;100.00
13486;BME280;6815;59.336;17.998;2024-03-29T00:43:15;91143.31;;;-145.37;100.00
13486;BME280;6815;59.336;17.998;2024-03-29T00:45:41;91181.69;;;-145.37;100.00
13486;BME280;6815;59.336;17.998;2024-03-29T00:48:06;91205.91;;;-145.37;100.00
13486;BME280;6815;59.336;17.998;2024-03-29T00:50:32;91113.03;;;-145.37;100.00
13486;BME280;6815;59.336;17.998;2024-03-29T00:52:57;91195.81;;;-145.37;100.00
13486;BME280;6815;59.336;17.998;2024-03-29T00:55:23;91197.84;;;-145.37;100.00
13486;BME280;6815;59.336;17.998;2024-03-29T00:57:49;91209.97;;;-145.37;100.00
13486;BME280;6815;59.336;17.998;2024-03-29T01:00:14;91282.66;;;-145.37;100.00
13486;BME280;6815;59.336;17.998;2024-03-29T01:02:39;91149.38;;;-145.37;100.00
13486;BME280;6815;59.336;17.998;2024-03-29T01:05:05;91201.88;;;-145.37;100.00
13486;BME280;6815;59.336;17.998;2024-03-29T01:07:31;91203.91;;;-145.37;100.00
13486;BME280;6815;59.336;17.998;2024-03-29T01:09:56;91185.72;;;-145.37;100.00
13486;BME280;6815;59.336;17.998;2024-03-29T01:12:22;91145.34;;;-145.37;100.00
13486;BME280;6815;59.336;17.998;2024-03-29T01:14:47;91226.09;;;-145.37;100.00
13486;BME280;6815;59.336;17.998;2024-03-29T01:17:13;91044.41;;;-145.37;100.00
13486;BME280;6815;59.336;17.998;2024-03-29T01:19:38;91197.84;;;-145.37;100.00
13486;BME280;6815;59.336;17.998;2024-03-29T01:22:04;91157.47;;;-145.37;100.00
13486;BME280;6815;59.336;17.998;2024-03-29T01:24:29;91199.88;;;-145.37;100.00
13486;BME280;6815;59.336;17.998;2024-03-29T01:26:55;91147.38;;;-145.37;100.00
13486;BME280;6815;59.336;17.998;2024-03-29T01:29:20;91258.41;;;-145.37;100.00
13486;BME280;6815;59.336;17.998;2024-03-29T01:31:46;91191.78;;;-145.37;100.00
13486;BME280;6815;59.336;17.998;2024-03-29T01:34:11;91191.78;;;-145.37;100.00
13486;BME280;6815;59.336;17.998;2024-03-29T01:36:36;91197.84;;;-145.37;100.00
13486;BME280;6815;59.336;17.998;2024-03-29T01:39:02;91484.56;;;-145.37;100.00
13486;BME280;6815;59.336;17.998;2024-03-29T01:41:29;91242.25;;;-145.37;100.00
13486;BME280;6815;59.336;17.998;2024-03-29T01:43:54;91193.81;;;-145.37;100.00
13486;BME280;6815;59.336;17.998;2024-03-29T01:46:21;91238.22;;;-145.37;100.00
13486;BME280;6815;59.336;17.998;2024-03-29T01:48:49;91123.13;;;-145.37;100.00
13486;BME280;6815;59.336;17.998;2024-03-29T01:51:15;91195.81;;;-145.37;100.00
13486;BME280;6815;59.336;17.998;2024-03-29T01:53:41;91214.00;;;-145.37;100.00
13486;BME280;6815;59.336;17.998;2024-03-29T01:56:08;91216.00;;;-145.37;100.00
13486;BME280;6815;59.336;17.998;2024-03-29T01:58:33;91117.06;;;-145.37;100.00
13486;BME280;6815;59.336;17.998;2024-03-29T02:01:00;91224.09;;;-145.37;100.00
13486;BME280;6815;59.336;17.998;2024-03-29T02:03:26;91218.03;;;-145.37;100.00
13486;BME280;6815;59.336;17.998;2024-03-29T02:05:53;91163.50;;;-145.37;100.00
13486;BME280;6815;59.336;17.998;2024-03-29T02:08:18;91211.97;;;-145.37;100.00
13486;BME280;6815;59.336;17.998;2024-03-29T02:10:47;91197.84;;;-145.37;100.00
13486;BME280;6815;59.336;17.998;2024-03-29T02:13:13;91234.19;;;-145.37;100.00
13486;BME280;6815;59.336;17.998;2024-03-29T02:15:41;91117.06;;;-145.37;100.00
13486;BME280;6815;59.336;17.998;2024-03-29T02:18:07;91222.06;;;-145.37;100.00
13486;BME280;6815;59.336;17.998;2024-03-29T02:20:33;91211.97;;;-145.37;100.00
13486;BME280;6815;59.336;17.998;2024-03-29T02:23:14;91135.25;;;-145.37;100.00
13486;BME280;6815;59.336;17.998;2024-03-29T02:25:41;91720.81;;;-145.37;100.00
13486;BME280;6815;59.336;17.998;2024-03-29T02:28:07;91173.63;;;-145.37;100.00
13486;BME280;6815;59.336;17.998;2024-03-29T02:30:32;91185.72;;;-145.37;100.00
13486;BME280;6815;59.336;17.998;2024-03-29T02:32:58;91209.97;;;-145.37;100.00
13486;BME280;6815;59.336;17.998;2024-03-29T02:35:24;91199.88;;;-145.37;100.00
13486;BME280;6815;59.336;17.998;2024-03-29T02:37:51;91185.72;;;-145.37;100.00
13486;BME280;6815;59.336;17.998;2024-03-29T02:40:16;91181.69;;;-145.37;100.00
13486;BME280;6815;59.336;17.998;2024-03-29T02:42:42;91173.63;;;-145.37;100.00
13486;BME280;6815;59.336;17.998;2024-03-29T02:45:07;91115.06;;;-145.37;100.00
13486;BME280;6815;59.336;17.998;2024-03-29T02:47:33;91195.81;;;-145.37;100.00
13486;BME280;6815;59.336;17.998;2024-03-29T02:49:58;91076.69;;;-145.37;100.00
13486;BME280;6815;59.336;17.998;2024-03-29T02:52:24;91195.81;;;-145.37;100.00
13486;BME280;6815;59.336;17.998;2024-03-29T02:54:49;91773.34;;;-145.37;100.00
13486;BME280;6815;59.336;17.998;2024-03-29T02:57:15;91216.00;;;-145.37;100.00
13486;BME280;6815;59.336;17.998;2024-03-29T02:59:41;91141.31;;;-145.37;100.00
13486;BME280;6815;59.336;17.998;2024-03-29T03:02:07;91207.94;;;-145.37;100.00
13486;BME280;6815;59.336;17.998;2024-03-29T03:04:32;91165.53;;;-145.37;100.00
13486;BME280;6815;59.336;17.998;2024-03-29T03:06:58;91173.63;;;-145.37;100.00
13486;BME280;6815;59.336;17.998;2024-03-29T03:09:43;91224.09;;;-145.37;100.00
13486;BME280;6815;59.336;17.998;2024-03-29T03:12:29;91214.00;;;-145.37;100.00
13486;BME280;6815;59.336;17.998;2024-03-29T03:14:55;91218.03;;;-145.37;100.00
13486;BME280;6815;59.336;17.998;2024-03-29T03:17:20;91201.88;;;-145.37;100.00
13486;BME280;6815;59.336;17.998;2024-03-29T03:19:46;91211.97;;;-145.37;100.00
13486;BME280;6815;59.336;17.998;2024-03-29T03:22:11;91169.56;;;-145.37;100.00
13486;BME280;6815;59.336;17.998;2024-03-29T03:24:37;91331.09;;;-145.37;100.00
13486;BME280;6815;59.336;17.998;2024-03-29T03:27:02;91147.38;;;-145.37;100.00
13486;BME280;6815;59.336;17.998;2024-03-29T03:29:28;91238.22;;;-145.37;100.00
13486;BME280;6815;59.336;17.998;2024-03-29T03:31:54;91228.13;;;-145.37;100.00
13486;BME280;6815;59.336;17.998;2024-03-29T03:34:19;91242.25;;;-145.37;100.00
13486;BME280;6815;59.336;17.998;2024-03-29T03:36:45;91211.97;;;-145.37;100.00
13486;BME280;6815;59.336;17.998;2024-03-29T03:39:10;91199.88;;;-145.37;100.00
13486;BME280;6815;59.336;17.998;2024-03-29T03:41:36;91151.41;;;-145.37;100.00
13486;BME280;6815;59.336;17.998;2024-03-29T03:44:01;91165.53;;;-145.37;100.00
13486;BME280;6815;59.336;17.998;2024-03-29T03:46:27;91220.06;;;-145.37;100.00
13486;BME280;6815;59.336;17.998;2024-03-29T03:48:52;91153.41;;;-145.37;100.00
13486;BME280;6815;59.336;17.998;2024-03-29T03:51:17;91276.59;;;-145.37;100.00
13486;BME280;6815;59.336;17.998;2024-03-29T03:53:43;91189.75;;;-145.37;100.00
13486;BME280;6815;59.336;17.998;2024-03-29T03:56:08;91216.00;;;-145.37;100.00
13486;BME280;6815;59.336;17.998;2024-03-29T03:58:34;91222.06;;;-145.37;100.00
13486;BME280;6815;59.336;17.998;2024-03-29T04:01:06;91189.75;;;-145.37;100.00
13486;BME280;6815;59.336;17.998;2024-03-29T04:03:31;91228.13;;;-145.37;100.00
13486;BME280;6815;59.336;17.998;2024-03-29T04:05:57;91238.22;;;-145.37;100.00
13486;BME280;6815;59.336;17.998;2024-03-29T04:08:22;91232.16;;;-145.37;100.00
13486;BME280;6815;59.336;17.998;2024-03-29T04:10:48;91179.66;;;-145.37;100.00
13486;BME280;6815;59.336;17.998;2024-03-29T04:13:13;91222.06;;;-145.37;100.00
13486;BME280;6815;59.336;17.998;2024-03-29T04:15:40;91224.09;;;-145.37;100.00
13486;BME280;6815;59.336;17.998;2024-03-29T04:18:06;91240.25;;;-145.37;100.00
13486;BME280;6815;59.336;17.998;2024-03-29T04:20:31;91211.97;;;-145.37;100.00
13486;BME280;6815;59.336;17.998;2024-03-29T04:22:57;91193.81;;;-145.37;100.00
13486;BME280;6815;59.336;17.998;2024-03-29T04:25:22;91125.16;;;-145.37;100.00
13486;BME280;6815;59.336;17.998;2024-03-29T04:27:48;91205.91;;;-145.37;100.00
13486;BME280;6815;59.336;17.998;2024-03-29T04:30:13;91205.91;;;-145.37;100.00
13486;BME280;6815;59.336;17.998;2024-03-29T04:32:39;91191.78;;;-145.37;100.00
13486;BME280;6815;59.336;17.998;2024-03-29T04:35:04;91238.22;;;-145.37;100.00
13486;BME280;6815;59.336;17.998;2024-03-29T04:37:30;91230.16;;;-145.37;100.00
13486;BME280;6815;59.336;17.998;2024-03-29T04:39:57;91129.19;;;-145.37;100.00
13486;BME280;6815;59.336;17.998;2024-03-29T04:42:22;91218.03;;;-145.37;100.00
13486;BME280;6815;59.336;17.998;2024-03-29T04:44:47;91226.09;;;-145.37;100.00
13486;BME280;6815;59.336;17.998;2024-03-29T04:47:13;90997.94;;;-145.37;100.00
13486;BME280;6815;59.336;17.998;2024-03-29T04:49:38;91226.09;;;-145.37;100.00
13486;BME280;6815;59.336;17.998;2024-03-29T04:52:07;91169.56;;;-145.37;100.00
13486;BME280;6815;59.336;17.998;2024-03-29T04:54:32;91228.13;;;-145.37;100.00
13486;BME280;6815;59.336;17.998;2024-03-29T04:57:02;91197.84;;;-145.37;100.00
13486;BME280;6815;59.336;17.998;2024-03-29T04:59:28;91072.66;;;-145.37;100.00
13486;BME280;6815;59.336;17.998;2024-03-29T05:01:55;91224.09;;;-145.37;100.00
13486;BME280;6815;59.336;17.998;2024-03-29T05:04:22;91242.25;;;-145.37;100.00
13486;BME280;6815;59.336;17.998;2024-03-29T05:06:54;91207.94;;;-145.37;100.00
13486;BME280;6815;59.336;17.998;2024-03-29T05:09:22;91270.53;;;-145.37;100.00
13486;BME280;6815;59.336;17.998;2024-03-29T05:11:48;91222.06;;;-145.37;100.00
13486;BME280;6815;59.336;17.998;2024-03-29T05:14:18;91145.34;;;-145.37;100.00
13486;BME280;6815;59.336;17.998;2024-03-29T05:16:44;91246.31;;;-145.37;100.00
13486;BME280;6815;59.336;17.998;2024-03-29T05:19:10;91157.47;;;-145.37;100.00
13486;BME280;6815;59.336;17.998;2024-03-29T05:21:35;91147.38;;;-145.37;100.00
13486;BME280;6815;59.336;17.998;2024-03-29T05:24:01;91238.22;;;-145.37;100.00
13486;BME280;6815;59.336;17.998;2024-03-29T05:26:26;91222.06;;;-145.37;100.00
13486;BME280;6815;59.336;17.998;2024-03-29T05:28:52;91232.16;;;-145.37;100.00
13486;BME280;6815;59.336;17.998;2024-03-29T05:31:19;91070.63;;;-145.37;100.00
13486;BME280;6815;59.336;17.998;2024-03-29T05:33:44;91224.09;;;-145.37;100.00
13486;BME280;6815;59.336;17.998;2024-03-29T05:36:12;91216.00;;;-145.37;100.00
13486;BME280;6815;59.336;17.998;2024-03-29T05:38:39;91222.06;;;-145.37;100.00
13486;BME280;6815;59.336;17.998;2024-03-29T05:41:05;91115.06;;;-145.37;100.00
13486;BME280;6815;59.336;17.998;2024-03-29T05:43:30;91619.84;;;-145.37;100.00
13486;BME280;6815;59.336;17.998;2024-03-29T05:45:56;91228.13;;;-145.37;100.00
13486;BME280;6815;59.336;17.998;2024-03-29T05:48:21;91030.25;;;-145.37;100.00
13486;BME280;6815;59.336;17.998;2024-03-29T05:50:47;91216.00;;;-145.37;100.00
13486;BME280;6815;59.336;17.998;2024-03-29T05:53:13;91207.94;;;-145.37;100.00
13486;BME280;6815;59.336;17.998;2024-03-29T05:55:38;91205.91;;;-145.37;100.00
13486;BME280;6815;59.336;17.998;2024-03-29T05:58:03;91181.69;;;-145.37;100.00
13486;BME280;6815;59.336;17.998;2024-03-29T06:00:31;91220.06;;;-145.37;100.00
13486;BME280;6815;59.336;17.998;2024-03-29T06:02:58;91195.81;;;-145.37;100.00
13486;BME280;6815;59.336;17.998;2024-03-29T06:05:24;91137.28;;;-145.37;100.00
13486;BME280;6815;59.336;17.998;2024-03-29T06:07:49;91216.00;;;-145.37;100.00
13486;BME280;6815;59.336;17.998;2024-03-29T06:10:14;91153.41;;;-145.37;100.00
13486;BME280;6815;59.336;17.998;2024-03-29T06:12:42;91153.41;;;-145.37;100.00
13486;BME280;6815;59.336;17.998;2024-03-29T06:15:07;91220.06;;;-145.37;100.00
13486;BME280;6815;59.336;17.998;2024-03-29T06:17:51;91211.97;;;-145.37;100.00
13486;BME280;6815;59.336;17.998;2024-03-29T06:20:17;91157.47;;;-145.37;100.00
13486;BME280;6815;59.336;17.998;2024-03-29T06:22:42;91710.72;;;-145.37;100.00
13486;BME280;6815;59.336;17.998;2024-03-29T06:25:08;91201.88;;;-145.37;100.00
13486;BME280;6815;59.336;17.998;2024-03-29T06:27:35;91220.06;;;-145.37;100.00
13486;BME280;6815;59.336;17.998;2024-03-29T06:30:01;91193.81;;;-145.37;100.00
13486;BME280;6815;59.336;17.998;2024-03-29T06:32:27;91222.06;;;-145.37;100.00
13486;BME280;6815;59.336;17.998;2024-03-29T06:34:53;91113.03;;;-145.37;100.00
13486;BME280;6815;59.336;17.998;2024-03-29T06:37:18;91100.94;;;-145.37;100.00
13486;BME280;6815;59.336;17.998;2024-03-29T06:39:47;91193.81;;;-145.37;100.00
13486;BME280;6815;59.336;17.998;2024-03-29T06:42:13;91201.88;;;-145.37;100.00
13486;BME280;6815;59.336;17.998;2024-03-29T06:44:39;91187.75;;;-145.37;100.00
13486;BME280;6815;59.336;17.998;2024-03-29T06:47:04;91153.41;;;-145.37;100.00
13486;BME280;6815;59.336;17.998;2024-03-29T06:49:30;91141.31;;;-145.37;100.00
13486;BME280;6815;59.336;17.998;2024-03-29T06:51:57;91205.91;;;-145.37;100.00
13486;BME280;6815;59.336;17.998;2024-03-29T06:54:24;91145.34;;;-145.37;100.00
13486;BME280;6815;59.336;17.998;2024-03-29T06:56:55;91060.53;;;-145.37;100.00
13486;BME280;6815;59.336;17.998;2024-03-29T06:59:22;91195.81;;;-145.37;100.00
13486;BME280;6815;59.336;17.998;2024-03-29T07:01:47;91181.69;;;-145.37;100.00
13486;BME280;6815;59.336;17.998;2024-03-29T07:04:17;91185.72;;;-145.37;100.00
13486;BME280;6815;59.336;17.998;2024-03-29T07:06:44;91149.38;;;-145.37;100.00
13486;BME280;6815;59.336;17.998;2024-03-29T07:09:13;91086.78;;;-145.37;100.00
13486;BME280;6815;59.336;17.998;2024-03-29T07:11:38;91173.63;;;-145.37;100.00
13486;BME280;6815;59.336;17.998;2024-03-29T07:14:04;91018.16;;;-145.37;100.00
13486;BME280;6815;59.336;17.998;2024-03-29T07:16:30;91189.75;;;-145.37;100.00
13486;BME280;6815;59.336;17.998;2024-03-29T07:18:55;91191.78;;;-145.37;100.00
13486;BME280;6815;59.336;17.998;2024-03-29T07:21:20;91193.81;;;-145.37;100.00
13486;BME280;6815;59.336;17.998;2024-03-29T07:23:46;91139.28;;;-145.37;100.00
13486;BME280;6815;59.336;17.998;2024-03-29T07:26:11;91102.94;;;-145.37;100.00
13486;BME280;6815;59.336;17.998;2024-03-29T07:28:38;91278.59;;;-145.37;100.00
13486;BME280;6815;59.336;17.998;2024-03-29T07:31:07;91163.50;;;-145.37;100.00
13486;BME280;6815;59.336;17.998;2024-03-29T07:33:34;91179.66;;;-145.37;100.00
13486;BME280;6815;59.336;17.998;2024-03-29T07:35:59;91308.91;;;-145.37;100.00
13486;BME280;6815;59.336;17.998;2024-03-29T07:38:25;91149.38;;;-145.37;100.00
13486;BME280;6815;59.336;17.998;2024-03-29T07:40:51;91094.88;;;-145.37;100.00
13486;BME280;6815;59.336;17.998;2024-03-29T07:43:21;91145.34;;;-145.37;100.00
13486;BME280;6815;59.336;17.998;2024-03-29T07:45:48;91082.75;;;-145.37;100.00
13486;BME280;6815;59.336;17.998;2024-03-29T07:48:15;91159.47;;;-145.37;100.00
13486;BME280;6815;59.336;17.998;2024-03-29T07:50:41;91149.38;;;-145.37;100.00
13486;BME280;6815;59.336;17.998;2024-03-29T07:53:07;91125.16;;;-145.37;100.00
13486;BME280;6815;59.336;17.998;2024-03-29T07:55:35;91157.47;;;-145.37;100.00
13486;BME280;6815;59.336;17.998;2024-03-29T07:58:00;91098.91;;;-145.37;100.00
13486;BME280;6815;59.336;17.998;2024-03-29T08:00:26;91185.72;;;-145.37;100.00
13486;BME280;6815;59.336;17.998;2024-03-29T08:02:52;91119.09;;;-145.37;100.00
13486;BME280;6815;59.336;17.998;2024-03-29T08:05:21;91044.41;;;-145.37;100.00
13486;BME280;6815;59.336;17.998;2024-03-29T08:07:47;91113.03;;;-145.37;100.00
13486;BME280;6815;59.336;17.998;2024-03-29T08:10:12;91088.81;;;-145.37;100.00
13486;BME280;6815;59.336;17.998;2024-03-29T08:12:38;91141.31;;;-145.37;100.00
13486;BME280;6815;59.336;17.998;2024-03-29T08:15:04;91094.88;;;-145.37;100.00
13486;BME280;6815;59.336;17.998;2024-03-29T08:17:29;91086.78;;;-145.37;100.00
13486;BME280;6815;59.336;17.998;2024-03-29T08:19:55;91048.44;;;-145.37;100.00
13486;BME280;6815;59.336;17.998;2024-03-29T08:22:20;91117.06;;;-145.37;100.00
13486;BME280;6815;59.336;17.998;2024-03-29T08:24:46;91137.28;;;-145.37;100.00
13486;BME280;6815;59.336;17.998;2024-03-29T08:27:11;91119.09;;;-145.37;100.00
13486;BME280;6815;59.336;17.998;2024-03-29T08:29:37;91086.78;;;-145.37;100.00
13486;BME280;6815;59.336;17.998;2024-03-29T08:32:03;91137.28;;;-145.37;100.00
13486;BME280;6815;59.336;17.998;2024-03-29T08:34:29;91121.13;;;-145.37;100.00
13486;BME280;6815;59.336;17.998;2024-03-29T08:37:00;91076.69;;;-145.37;100.00
13486;BME280;6815;59.336;17.998;2024-03-29T08:39:26;91123.13;;;-145.37;100.00
13486;BME280;6815;59.336;17.998;2024-03-29T08:41:52;91111.03;;;-145.37;100.00
13486;BME280;6815;59.336;17.998;2024-03-29T08:44:17;91123.13;;;-145.37;100.00
13486;BME280;6815;59.336;17.998;2024-03-29T08:46:42;91119.09;;;-145.37;100.00
13486;BME280;6815;59.336;17.998;2024-03-29T08:49:08;91660.25;;;-145.37;100.00
13486;BME280;6815;59.336;17.998;2024-03-29T08:51:33;91100.94;;;-145.37;100.00
13486;BME280;6815;59.336;17.998;2024-03-29T08:53:59;91109.00;;;-145.37;100.00
13486;BME280;6815;59.336;17.998;2024-03-29T08:56:24;91106.97;;;-145.37;100.00
13486;BME280;6815;59.336;17.998;2024-03-29T08:58:50;91084.78;;;-145.37;100.00
13486;BME280;6815;59.336;17.998;2024-03-29T09:01:15;90931.31;;;-145.37;100.00
13486;BME280;6815;59.336;17.998;2024-03-29T09:03:41;91090.84;;;-145.37;100.00
13486;BME280;6815;59.336;17.998;2024-03-29T09:06:06;91074.69;;;-145.37;100.00
13486;BME280;6815;59.336;17.998;2024-03-29T09:08:31;91135.25;;;-145.37;100.00
13486;BME280;6815;59.336;17.998;2024-03-29T09:10:57;91102.94;;;-145.37;100.00
13486;BME280;6815;59.336;17.998;2024-03-29T09:13:23;91090.84;;;-145.37;100.00
13486;BME280;6815;59.336;17.998;2024-03-29T09:15:49;91092.84;;;-145.37;100.00
13486;BME280;6815;59.336;17.998;2024-03-29T09:18:14;91060.53;;;-145.37;100.00
13486;BME280;6815;59.336;17.998;2024-03-29T09:20:56;90999.97;;;-145.37;100.00
13486;BME280;6815;59.336;17.998;2024-03-29T09:23:22;91060.53;;;-145.37;100.00
13486;BME280;6815;59.336;17.998;2024-03-29T09:25:48;91046.41;;;-145.37;100.00
13486;BME280;6815;59.336;17.998;2024-03-29T09:28:13;90979.78;;;-145.37;100.00
13486;BME280;6815;59.336;17.998;2024-03-29T09:30:39;91060.53;;;-145.37;100.00
13486;BME280;6815;59.336;17.998;2024-03-29T09:33:04;91020.16;;;-145.37;100.00
13486;BME280;6815;59.336;17.998;2024-03-29T09:35:34;90985.84;;;-145.37;100.00
13486;BME280;6815;59.336;17.998;2024-03-29T09:38:00;91054.50;;;-145.37;100.00
13486;BME280;6815;59.336;17.998;2024-03-29T09:40:26;90985.84;;;-145.37;99.82
13486;BME280;6815;59.336;17.998;2024-03-29T09:42:52;91024.19;;;-145.37;99.08
13486;BME280;6815;59.336;17.998;2024-03-29T09:45:20;90971.72;;;-145.37;98.43
13486;BME280;6815;59.336;17.998;2024-03-29T09:47:46;91002.00;;;-145.37;97.92
13486;BME280;6815;59.336;17.998;2024-03-29T09:50:12;91020.16;;;-145.37;97.75
13486;BME280;6815;59.336;17.998;2024-03-29T09:52:39;90993.91;;;-145.37;97.32
13486;BME280;6815;59.336;17.998;2024-03-29T09:55:06;91054.50;;;-145.37;97.28
13486;BME280;6815;59.336;17.998;2024-03-29T09:57:32;90899.03;;;-145.37;97.24
13486;BME280;6815;59.336;17.998;2024-03-29T09:59:58;90981.81;;;-145.37;97.19
13486;BME280;6815;59.336;17.998;2024-03-29T10:02:28;91026.22;;;-145.37;96.79
13486;BME280;6815;59.336;17.998;2024-03-29T10:04:57;91038.34;;;-145.37;96.92
13486;BME280;6815;59.336;17.998;2024-03-29T10:07:23;90997.94;;;-145.37;96.50
13486;BME280;6815;59.336;17.998;2024-03-29T10:09:49;90997.94;;;-145.37;96.35
13486;BME280;6815;59.336;17.998;2024-03-29T10:12:16;90963.63;;;-145.37;96.40
13486;BME280;6815;59.336;17.998;2024-03-29T10:14:46;90949.50;;;-145.37;96.62
13486;BME280;6815;59.336;17.998;2024-03-29T10:17:18;90788.00;;;-145.37;96.53
13486;BME280;6815;59.336;17.998;2024-03-29T10:19:45;91018.16;;;-145.37;95.60
13486;BME280;6815;59.336;17.998;2024-03-29T10:22:10;91038.34;;;-145.37;95.13
13486;BME280;6815;59.336;17.998;2024-03-29T10:24:36;90864.69;;;-145.37;95.21
13486;BME280;6815;59.336;17.998;2024-03-29T10:27:03;90973.72;;;-145.37;94.99
13486;BME280;6815;59.336;17.998;2024-03-29T10:29:28;90991.91;;;-145.37;95.09
13486;BME280;6815;59.336;17.998;2024-03-29T10:31:57;91004.00;;;-145.37;95.00
13486;BME280;6815;59.336;17.998;2024-03-29T10:34:24;91516.88;;;-145.37;94.74
13486;BME280;6815;59.336;17.998;2024-03-29T10:36:51;91543.13;;;-145.37;94.62
13486;BME280;6815;59.336;17.998;2024-03-29T10:39:17;90999.97;;;-145.37;94.67
13486;BME280;6815;59.336;17.998;2024-03-29T10:41:44;90931.31;;;-145.37;94.49
13486;BME280;6815;59.336;17.998;2024-03-29T10:44:12;90965.66;;;-145.37;94.98
13486;BME280;6815;59.336;17.998;2024-03-29T10:46:38;90939.41;;;-145.37;94.98
13486;BME280;6815;59.336;17.998;2024-03-29T10:49:08;91016.13;;;-145.37;95.17
13486;BME280;6815;59.336;17.998;2024-03-29T10:51:39;91038.34;;;-145.37;94.83
13486;BME280;6815;59.336;17.998;2024-03-29T10:54:08;90969.69;;;-145.37;94.79
13486;BME280;6815;59.336;17.998;2024-03-29T10:56:35;90899.03;;;-145.37;94.87
13486;BME280;6815;59.336;17.998;2024-03-29T10:59:39;90979.78;;;-145.37;94.85
13486;BME280;6815;59.336;17.998;2024-03-29T11:05:09;91004.00;;;-145.37;94.72
13486;BME280;6815;59.336;17.998;2024-03-29T11:07:39;90951.53;;;-145.37;94.47
13486;BME280;6815;59.336;17.998;2024-03-29T11:10:13;90983.81;;;-145.37;94.94
13486;BME280;6815;59.336;17.998;2024-03-29T11:12:50;90955.56;;;-145.37;95.19
13486;BME280;6815;59.336;17.998;2024-03-29T11:15:28;91012.09;;;-145.37;94.92
13486;BME280;6815;59.336;17.998;2024-03-29T11:17:55;91020.16;;;-145.37;94.52
13486;BME280;6815;59.336;17.998;2024-03-29T11:20:31;91102.94;;;-145.37;94.58
13486;BME280;6815;59.336;17.998;2024-03-29T11:23:03;90983.81;;;-145.37;94.49
13486;BME280;6815;59.336;17.998;2024-03-29T11:25:42;91537.06;;;-145.37;93.98
13486;BME280;6815;59.336;17.998;2024-03-29T11:28:09;90983.81;;;-145.37;94.02
13486;BME280;6815;59.336;17.998;2024-03-29T11:30:48;90995.94;;;-145.37;94.09
13486;BME280;6815;59.336;17.998;2024-03-29T11:33:56;90983.81;;;-145.37;93.98
13486;BME280;6815;59.336;17.998;2024-03-29T11:36:23;90957.56;;;-145.37;92.97
13486;BME280;6815;59.336;17.998;2024-03-29T11:38:51;90953.53;;;-145.37;93.11
13486;BME280;6815;59.336;17.998;2024-03-29T11:41:21;90943.44;;;-145.37;92.26
13486;BME280;6815;59.336;17.998;2024-03-29T11:43:59;90905.09;;;-145.37;91.51
13486;BME280;6815;59.336;17.998;2024-03-29T11:46:25;90907.09;;;-145.37;90.58
13486;BME280;6815;59.336;17.998;2024-03-29T11:48:50;90959.59;;;-145.37;89.65
13486;BME280;6815;59.336;17.998;2024-03-29T11:51:21;90921.22;;;-145.37;89.47
13486;BME280;6815;59.336;17.998;2024-03-29T11:53:48;90919.22;;;-145.37;88.30
13486;BME280;6815;59.336;17.998;2024-03-29T11:56:15;90794.03;;;-145.37;85.61
13486;BME280;6815;59.336;17.998;2024-03-29T11:58:41;90745.59;;;-145.37;86.54
13486;BME280;6815;59.336;17.998;2024-03-29T12:01:07;90775.88;;;-145.37;84.11
13486;BME280;6815;59.336;17.998;2024-03-29T12:03:39;91432.06;;;-145.37;83.35
13486;BME280;6815;59.336;17.998;2024-03-29T12:06:05;90717.31;;;-145.37;81.63
13486;BME280;6815;59.336;17.998;2024-03-29T12:08:38;90830.38;;;-145.37;81.46
13486;BME280;6815;59.336;17.998;2024-03-29T12:11:04;90779.91;;;-145.37;81.97
13486;BME280;6815;59.336;17.998;2024-03-29T12:13:30;90808.19;;;-145.37;81.55
13486;BME280;6815;59.336;17.998;2024-03-29T12:15:57;90884.91;;;-145.37;80.89
13486;BME280;6815;59.336;17.998;2024-03-29T12:18:24;90842.50;;;-145.37;80.20
13486;BME280;6815;59.336;17.998;2024-03-29T12:20:51;90840.47;;;-145.37;80.55
13486;BME280;6815;59.336;17.998;2024-03-29T12:23:20;90963.63;;;-145.37;80.36
13486;BME280;6815;59.336;17.998;2024-03-29T12:25:46;90769.81;;;-145.37;80.79
13486;BME280;6815;59.336;17.998;2024-03-29T12:28:13;90804.13;;;-145.37;78.98
13486;BME280;6815;59.336;17.998;2024-03-29T12:30:44;90804.13;;;-145.37;79.68
13486;BME280;6815;59.336;17.998;2024-03-29T12:33:17;90814.22;;;-145.37;78.20
13486;BME280;6815;59.336;17.998;2024-03-29T12:35:49;90765.78;;;-145.37;77.44